Time;durP1;ratioP1;P1;durP2;ratioP2;P2;SDS_P1;SDS_P2;PMS_P1;PMS_P2;Temp;Humidity;BMP_temperature;BMP_pressure;BME280_temperature;BME280_humidity;BME280_pressure;Samples;Min_cycle;Max_cycle;Signal;HPM_P1;HPM_P2
2023/06/29 00:01:10;;;;;;;5.60;3.40;;;;;;;14.86;100.00;100616.81;5006733;28;20121;-74
2023/06/29 00:03:35;;;;;;;7.90;4.47;;;;;;;14.78;100.00;100608.13;5004979;28;20045;-73
2023/06/29 00:06:01;;;;;;;6.03;4.15;;;;;;;15.04;100.00;100612.16;5005404;28;20104;-73
2023/06/29 00:08:28;;;;;;;7.50;4.78;;;;;;;14.74;100.00;100593.22;5005988;28;20056;-73
2023/06/29 00:10:55;;;;;;;9.57;5.55;;;;;;;14.48;100.00;100544.22;5004731;28;20045;-73
2023/06/29 00:13:22;;;;;;;7.40;4.43;;;;;;;14.54;100.00;100538.03;4999898;28;20038;-73
2023/06/29 00:15:48;;;;;;;7.05;4.13;;;;;;;14.36;100.00;100513.59;5006234;28;20163;-74
2023/06/29 00:18:14;;;;;;;9.98;4.13;;;;;;;14.77;100.00;100611.66;5003908;28;20037;-73
2023/06/29 00:20:41;;;;;;;8.00;3.70;;;;;;;14.84;100.00;100592.16;5003783;28;20050;-74
2023/06/29 00:23:07;;;;;;;8.43;4.60;;;;;;;14.49;100.00;100540.72;5003363;28;20117;-75
2023/06/29 00:25:34;;;;;;;16.88;7.43;;;;;;;14.62;100.00;100594.25;5005842;28;20883;-74
2023/06/29 00:27:59;;;;;;;9.63;5.07;;;;;;;14.71;100.00;100604.69;5003814;28;20057;-74
2023/06/29 00:30:25;;;;;;;8.88;5.20;;;;;;;14.48;100.00;100528.41;5005242;28;20092;-74
2023/06/29 00:32:51;;;;;;;6.95;5.13;;;;;;;15.02;100.00;100603.38;5004678;28;20052;-74
2023/06/29 00:35:17;;;;;;;12.77;5.35;;;;;;;14.43;100.00;100510.88;5005849;28;20037;-74
2023/06/29 00:37:42;;;;;;;7.63;5.43;;;;;;;14.54;100.00;100531.00;5006439;28;20466;-74
2023/06/29 00:40:09;;;;;;;10.13;5.03;;;;;;;14.85;100.00;100553.44;5005493;28;20046;-74
2023/06/29 00:42:35;;;;;;;8.63;5.47;;;;;;;14.69;100.00;100513.16;5004974;28;20605;-74
2023/06/29 00:45:02;;;;;;;14.10;6.22;;;;;;;14.69;100.00;100547.50;5004131;28;20053;-74
2023/06/29 00:47:28;;;;;;;8.57;6.10;;;;;;;14.96;100.00;100581.44;5005574;28;20040;-74
2023/06/29 00:49:55;;;;;;;10.07;6.00;;;;;;;15.05;100.00;100604.19;5004107;28;20053;-74
2023/06/29 00:52:21;;;;;;;12.85;8.10;;;;;;;14.97;100.00;100604.31;5004381;28;20064;-74
2023/06/29 00:54:47;;;;;;;12.80;8.32;;;;;;;14.53;100.00;100533.59;5003844;28;20046;-74
2023/06/29 00:57:13;;;;;;;14.30;8.18;;;;;;;14.81;100.00;100580.78;5005102;28;20045;-74
2023/06/29 00:59:38;;;;;;;11.27;7.70;;;;;;;14.57;100.00;100577.59;5005530;28;20042;-74
2023/06/29 01:02:04;;;;;;;11.52;8.25;;;;;;;14.73;100.00;100573.00;5007260;28;20025;-74
2023/06/29 01:04:32;;;;;;;13.18;8.82;;;;;;;14.80;100.00;100586.94;5004430;28;20042;-76
2023/06/29 01:07:06;;;;;;;11.77;8.35;;;;;;;14.29;100.00;100489.97;5005322;28;20805;-75
2023/06/29 01:09:33;;;;;;;21.55;8.07;;;;;;;14.90;100.00;100593.88;5005341;28;20046;-73
2023/06/29 01:12:01;;;;;;;14.77;9.23;;;;;;;14.70;100.00;100530.75;5004877;28;20447;-76
2023/06/29 01:14:27;;;;;;;11.05;7.85;;;;;;;14.84;100.00;100581.59;5004734;28;20038;-76
2023/06/29 01:16:56;;;;;;;13.95;8.65;;;;;;;14.97;100.00;100575.25;5006309;28;20497;-76
2023/06/29 01:19:25;;;;;;;12.63;8.45;;;;;;;14.45;100.00;100487.97;5001892;28;20163;-75
2023/06/29 01:22:09;;;;;;;12.50;8.38;;;;;;;14.96;100.00;100554.13;5004554;28;20129;-75
2023/06/29 01:24:39;;;;;;;11.70;7.45;;;;;;;14.33;100.00;100465.28;5005061;28;20123;-76
2023/06/29 01:27:07;;;;;;;12.95;7.95;;;;;;;15.04;100.00;100583.09;5003385;28;20133;-76
2023/06/29 01:29:32;;;;;;;12.48;7.97;;;;;;;14.37;100.00;100485.44;5005017;28;20094;-77
2023/06/29 01:32:00;;;;;;;22.00;8.80;;;;;;;14.60;100.00;100498.31;5003101;28;20597;-77
2023/06/29 01:34:30;;;;;;;10.63;7.35;;;;;;;15.10;100.00;100581.22;5004728;28;20057;-76
2023/06/29 01:37:02;;;;;;;13.40;8.10;;;;;;;15.01;100.00;100562.88;5005240;28;20486;-76
2023/06/29 01:39:32;;;;;;;18.08;10.45;;;;;;;15.04;100.00;100565.47;5004673;28;20100;-76
2023/06/29 01:42:00;;;;;;;15.35;9.52;;;;;;;14.53;100.00;100496.63;5004504;28;20069;-76
2023/06/29 01:44:25;;;;;;;13.38;8.73;;;;;;;15.03;100.00;100587.50;5006421;28;20022;-75
2023/06/29 01:46:52;;;;;;;17.27;9.80;;;;;;;15.11;100.00;100585.59;5007232;28;20437;-72
2023/06/29 01:49:17;;;;;;;18.52;9.13;;;;;;;14.92;100.00;100552.44;5006680;28;20116;-74
2023/06/29 01:51:43;;;;;;;13.35;9.45;;;;;;;15.00;100.00;100566.38;5006510;28;20493;-74
2023/06/29 01:54:08;;;;;;;13.00;7.13;;;;;;;14.84;100.00;100533.19;5006165;28;20489;-76
2023/06/29 01:56:34;;;;;;;14.75;8.30;;;;;;;14.68;100.00;100493.81;5006555;28;20468;-75
2023/06/29 01:59:01;;;;;;;16.50;9.45;;;;;;;14.92;100.00;100566.53;5007204;28;20030;-73
2023/06/29 02:01:28;;;;;;;13.02;7.80;;;;;;;14.35;100.00;100456.44;5008408;28;20053;-73
2023/06/29 02:03:53;;;;;;;13.50;7.10;;;;;;;14.69;100.00;100498.19;5007536;28;20127;-74
2023/06/29 02:06:19;;;;;;;13.15;7.47;;;;;;;15.12;100.00;100560.03;5007495;28;20069;-73
2023/06/29 02:08:45;;;;;;;11.60;6.97;;;;;;;15.10;100.00;100567.13;5008296;28;20038;-74
2023/06/29 02:11:10;;;;;;;15.23;7.50;;;;;;;15.09;100.00;100568.88;5003310;28;20029;-73
2023/06/29 02:13:36;;;;;;;12.02;8.48;;;;;;;14.57;100.00;100453.50;5007053;28;20058;-74
2023/06/29 02:16:01;;;;;;;12.88;8.20;;;;;;;15.02;100.00;100554.03;4990867;28;20754;-73
2023/06/29 02:18:27;;;;;;;14.25;7.40;;;;;;;14.49;100.00;100460.59;5006526;28;20049;-75
2023/06/29 02:20:53;;;;;;;11.32;8.63;;;;;;;14.90;100.00;100547.16;5007632;28;20409;-75
2023/06/29 02:23:18;;;;;;;14.23;7.80;;;;;;;14.39;100.00;100456.38;5028272;28;20046;-73
2023/06/29 02:25:44;;;;;;;12.63;7.32;;;;;;;14.12;100.00;100409.25;5008185;28;20486;-73
2023/06/29 02:28:09;;;;;;;10.43;7.70;;;;;;;15.02;100.00;100554.03;5007596;28;20042;-75
2023/06/29 02:30:35;;;;;;;11.38;7.65;;;;;;;14.56;100.00;100462.28;5006939;28;20153;-75
2023/06/29 02:33:00;;;;;;;10.90;7.60;;;;;;;14.53;100.00;100454.38;5004821;28;20563;-74
2023/06/29 02:35:26;;;;;;;9.48;7.18;;;;;;;14.96;100.00;100543.53;5006424;28;20057;-73
2023/06/29 02:37:51;;;;;;;12.40;7.40;;;;;;;14.55;100.00;100448.22;5008587;28;20029;-73
2023/06/29 02:40:17;;;;;;;17.25;8.40;;;;;;;15.06;100.00;100539.00;5007241;28;20046;-73
2023/06/29 02:42:42;;;;;;;13.05;8.15;;;;;;;15.05;100.00;100529.31;5007315;28;20053;-73
2023/06/29 02:45:08;;;;;;;9.70;6.70;;;;;;;14.37;100.00;100453.75;5006788;28;20034;-74
2023/06/29 02:47:34;;;;;;;15.10;9.40;;;;;;;14.68;100.00;100471.78;5006692;28;20022;-73
2023/06/29 02:50:00;;;;;;;15.27;9.10;;;;;;;14.96;100.00;100543.53;5007740;28;20104;-72
2023/06/29 02:52:25;;;;;;;11.00;6.78;;;;;;;14.59;100.00;100458.75;5005192;28;20060;-73
2023/06/29 02:54:51;;;;;;;12.93;8.50;;;;;;;15.01;100.00;100511.75;5005467;28;20658;-73
2023/06/29 02:57:16;;;;;;;13.95;7.55;;;;;;;15.14;100.00;100542.38;5007368;28;20038;-73
2023/06/29 02:59:42;;;;;;;12.30;7.47;;;;;;;15.18;100.00;100533.50;5005964;28;20038;-74
2023/06/29 03:02:07;;;;;;;14.65;8.68;;;;;;;15.11;100.00;100521.31;5004995;28;20125;-73
2023/06/29 03:04:33;;;;;;;12.10;7.53;;;;;;;15.22;100.00;100529.03;5006294;28;20050;-74
2023/06/29 03:06:58;;;;;;;13.32;7.95;;;;;;;14.78;100.00;100458.41;5005484;28;20050;-74
2023/06/29 03:09:23;;;;;;;23.00;9.40;;;;;;;14.63;100.00;100444.59;5006418;28;20111;-74
2023/06/29 03:11:49;;;;;;;14.02;7.35;;;;;;;15.15;100.00;100539.72;5006003;28;20441;-75
2023/06/29 03:14:14;;;;;;;13.73;8.25;;;;;;;14.73;100.00;100526.31;5004855;28;20040;-74
2023/06/29 03:16:40;;;;;;;13.70;9.18;;;;;;;15.12;100.00;100547.69;5004308;28;20058;-77
2023/06/29 03:19:05;;;;;;;15.40;11.18;;;;;;;14.94;100.00;100524.22;4999211;28;20049;-77
2023/06/29 03:21:31;;;;;;;14.82;8.60;;;;;;;15.12;100.00;100544.19;5001346;28;20493;-78
2023/06/29 03:23:56;;;;;;;13.68;9.68;;;;;;;15.18;100.00;100546.72;5003365;28;20042;-77
2023/06/29 03:26:22;;;;;;;17.40;8.23;;;;;;;14.62;100.00;100448.13;5007482;28;20034;-77
2023/06/29 03:28:47;;;;;;;14.20;7.47;;;;;;;15.18;100.00;100534.38;5007470;28;20295;-76
2023/06/29 03:31:13;;;;;;;15.65;9.20;;;;;;;15.05;100.00;100508.19;5007438;28;20213;-77
2023/06/29 03:33:39;;;;;;;14.82;9.52;;;;;;;14.61;100.00;100442.00;5004904;28;20050;-76
2023/06/29 03:36:05;;;;;;;14.90;8.40;;;;;;;14.75;100.00;100455.84;5007033;28;20050;-74
2023/06/29 03:38:30;;;;;;;18.02;9.75;;;;;;;14.73;100.00;100459.41;5005953;28;20060;-75
2023/06/29 03:40:56;;;;;;;14.10;9.60;;;;;;;15.10;100.00;100541.59;5006425;28;20065;-75
2023/06/29 03:43:21;;;;;;;19.98;11.13;;;;;;;15.17;100.00;100535.28;5005521;28;20046;-75
2023/06/29 03:45:47;;;;;;;14.80;10.23;;;;;;;14.54;100.00;100458.81;5002213;28;20486;-74
2023/06/29 03:48:12;;;;;;;18.77;9.88;;;;;;;15.09;100.00;100517.81;5005089;28;20498;-78
2023/06/29 03:50:38;;;;;;;14.73;10.32;;;;;;;14.87;100.00;100467.97;5002979;28;20045;-76
2023/06/29 03:53:03;;;;;;;14.57;9.05;;;;;;;15.39;100.00;100541.06;5007732;28;20081;-75
2023/06/29 03:55:29;;;;;;;13.40;8.80;;;;;;;14.62;100.00;100421.72;5007230;28;20088;-75
2023/06/29 03:57:57;;;;;;;17.73;10.25;;;;;;;14.90;100.00;100443.25;5008176;28;20050;-75
2023/06/29 04:00:23;;;;;;;11.40;7.43;;;;;;;14.97;100.00;100460.75;5005843;28;20518;-78
2023/06/29 04:02:48;;;;;;;21.05;11.40;;;;;;;15.44;100.00;100540.13;5005351;28;20045;-77
2023/06/29 04:05:14;;;;;;;17.25;10.48;;;;;;;14.80;100.00;100476.91;5001683;28;20033;-77
2023/06/29 04:07:39;;;;;;;18.05;10.52;;;;;;;14.72;100.00;100434.72;5005832;28;20033;-74
2023/06/29 04:10:05;;;;;;;15.25;8.90;;;;;;;14.66;100.00;100431.34;5004176;28;20096;-80
2023/06/29 04:12:31;;;;;;;15.35;8.57;;;;;;;14.92;100.00;100444.97;5005390;28;20513;-76
2023/06/29 04:14:56;;;;;;;13.77;9.02;;;;;;;15.52;100.00;100543.47;5007379;28;20481;-77
2023/06/29 04:17:22;;;;;;;15.88;9.50;;;;;;;14.81;100.00;100422.28;5007031;28;20072;-77
2023/06/29 04:19:47;;;;;;;13.93;9.25;;;;;;;14.78;100.00;100432.00;5006016;28;20033;-77
2023/06/29 04:22:12;;;;;;;16.65;11.95;;;;;;;15.37;100.00;100499.69;5004802;28;20052;-77
2023/06/29 04:24:38;;;;;;;15.40;9.93;;;;;;;15.50;100.00;100517.09;5006598;28;20061;-77
2023/06/29 04:27:04;;;;;;;16.88;9.90;;;;;;;15.57;100.00;100516.06;5007729;28;20846;-77
2023/06/29 04:29:29;;;;;;;14.00;9.18;;;;;;;14.82;100.00;100413.44;5005935;28;20609;-77
2023/06/29 04:31:55;;;;;;;18.00;8.80;;;;;;;15.26;100.00;100454.94;5007368;28;20033;-77
2023/06/29 04:34:21;;;;;;;13.50;8.00;;;;;;;15.72;100.00;100530.78;5006441;28;20041;-78
2023/06/29 04:36:47;;;;;;;19.20;10.50;;;;;;;15.79;100.00;100536.84;5007287;28;20045;-77
2023/06/29 04:39:13;;;;;;;13.02;8.43;;;;;;;15.15;100.00;100456.91;5006632;28;20461;-78
2023/06/29 04:41:41;;;;;;;13.23;8.13;;;;;;;15.77;100.00;100534.22;5004241;28;20398;-76
2023/06/29 04:44:09;;;;;;;13.60;8.98;;;;;;;15.45;100.00;100436.06;5006236;28;20517;-75
2023/06/29 04:46:38;;;;;;;12.95;8.30;;;;;;;15.46;100.00;100451.91;5006166;28;20136;-76
2023/06/29 04:49:06;;;;;;;16.20;9.88;;;;;;;15.92;100.00;100534.81;5004858;28;20049;-78
2023/06/29 04:51:33;;;;;;;15.73;7.53;;;;;;;15.82;100.00;100487.38;5004328;28;20057;-78
2023/06/29 04:53:59;;;;;;;16.95;9.70;;;;;;;16.19;100.00;100521.00;5001746;28;20533;-75
2023/06/29 04:56:24;;;;;;;16.67;11.07;;;;;;;16.15;100.00;100521.09;5005293;28;21106;-77
2023/06/29 04:58:49;;;;;;;13.30;7.22;;;;;;;15.66;100.00;100421.53;5004121;28;20034;-76
2023/06/29 05:01:15;;;;;;;16.02;8.15;;;;;;;16.30;100.00;100512.84;5001310;28;20498;-77
2023/06/29 05:03:40;;;;;;;14.60;8.57;;;;;;;16.36;100.00;100511.81;5005787;28;20085;-76
2023/06/29 05:06:06;;;;;;;15.27;7.90;;;;;;;16.29;100.00;100465.22;5005866;28;20046;-78
2023/06/29 05:08:31;;;;;;;14.02;7.78;;;;;;;16.94;100.00;100514.94;5006105;28;20473;-78
2023/06/29 05:10:57;;;;;;;11.38;7.65;;;;;;;16.99;100.00;100495.34;5000112;28;20489;-77
2023/06/29 05:13:22;;;;;;;13.88;10.43;;;;;;;17.51;100.00;100524.94;5005162;28;20049;-77
2023/06/29 05:15:48;;;;;;;11.80;7.25;;;;;;;17.78;100.00;100528.63;5010472;28;20054;-79
2023/06/29 05:18:14;;;;;;;10.23;7.15;;;;;;;18.29;100.00;100527.22;5009360;28;20416;-78
2023/06/29 05:20:40;;;;;;;14.00;7.85;;;;;;;18.09;100.00;100530.44;5010379;28;20090;-75
2023/06/29 05:23:06;;;;;;;12.27;8.75;;;;;;;18.49;100.00;100506.19;5009856;28;20052;-77
2023/06/29 05:25:31;;;;;;;13.55;9.05;;;;;;;18.10;100.00;100450.75;5004394;28;20096;-76
2023/06/29 05:27:57;;;;;;;11.40;7.15;;;;;;;17.56;100.00;100450.53;5009083;28;20060;-77
2023/06/29 05:30:23;;;;;;;15.65;8.02;;;;;;;16.99;100.00;100446.75;5009827;28;20073;-76
2023/06/29 05:32:48;;;;;;;14.48;6.88;;;;;;;16.90;100.00;100455.81;5000149;28;20111;-79
2023/06/29 05:35:14;;;;;;;10.13;7.22;;;;;;;17.04;100.00;100525.28;5002699;28;20428;-75
2023/06/29 05:37:40;;;;;;;10.00;6.93;;;;;;;17.89;100.00;100446.94;5010387;28;20056;-74
2023/06/29 05:40:06;;;;;;;13.85;6.40;;;;;;;18.87;100.00;100517.47;5005128;28;20054;-75
2023/06/29 05:42:32;;;;;;;10.88;5.53;;;;;;;19.58;100.00;100526.56;5003076;28;20101;-72
2023/06/29 05:44:58;;;;;;;12.60;6.47;;;;;;;18.62;100.00;100452.69;5002664;28;20050;-69
2023/06/29 05:47:24;;;;;;;11.90;6.30;;;;;;;19.83;100.00;100496.44;5003479;28;20519;-68
2023/06/29 05:49:50;;;;;;;11.63;6.40;;;;;;;20.17;100.00;100524.44;5002428;28;20042;-69
2023/06/29 05:52:15;;;;;;;10.23;6.43;;;;;;;19.78;100.00;100426.47;5003708;28;20089;-69
2023/06/29 05:54:41;;;;;;;11.38;6.88;;;;;;;20.17;100.00;100474.69;5002170;28;20105;-69
2023/06/29 05:57:06;;;;;;;8.48;5.55;;;;;;;20.34;100.00;100467.81;5008073;28;20077;-69
2023/06/29 05:59:32;;;;;;;10.07;6.70;;;;;;;20.58;100.00;100514.88;5007237;28;20056;-68
2023/06/29 06:01:58;;;;;;;10.07;6.45;;;;;;;20.56;100.00;100450.09;5008125;28;20034;-69
2023/06/29 06:04:23;;;;;;;10.45;5.28;;;;;;;20.68;100.00;100466.53;5005838;28;20061;-70
2023/06/29 06:06:49;;;;;;;10.05;5.90;;;;;;;20.49;100.00;100413.91;5007267;28;20192;-69
2023/06/29 06:09:14;;;;;;;8.65;6.07;;;;;;;20.57;100.00;100427.81;5007619;28;20045;-70
2023/06/29 06:11:40;;;;;;;6.80;5.43;;;;;;;21.20;100.00;100507.00;5008600;28;20065;-69
2023/06/29 06:14:05;;;;;;;11.30;5.13;;;;;;;20.21;100.00;100500.28;5001912;28;20827;-69
2023/06/29 06:16:31;;;;;;;9.80;5.55;;;;;;;20.59;100.00;100415.28;5008784;28;20046;-69
2023/06/29 06:18:56;;;;;;;9.50;5.53;;;;;;;21.19;100.00;100497.25;5007302;28;20056;-69
2023/06/29 06:21:23;;;;;;;8.07;5.18;;;;;;;21.33;100.00;100496.66;5008626;28;20489;-70
2023/06/29 06:23:49;;;;;;;8.73;5.40;;;;;;;21.32;100.00;100490.47;5008118;28;20046;-68
2023/06/29 06:26:14;;;;;;;11.75;6.35;;;;;;;21.00;100.00;100420.69;5008814;28;20478;-68
2023/06/29 06:28:40;;;;;;;8.20;5.28;;;;;;;;;;5008670;28;20076;-71
2023/06/29 06:31:05;;;;;;;7.50;5.68;;;;;;;21.16;100.00;100430.69;5004556;28;20046;-69
2023/06/29 06:33:32;;;;;;;12.50;5.72;;;;;;;20.87;100.00;100417.66;5006762;28;20512;-69
2023/06/29 06:35:59;;;;;;;10.60;5.57;;;;;;;21.17;100.00;100427.09;5008375;28;20602;-69
2023/06/29 06:38:24;;;;;;;6.50;4.78;;;;;;;21.56;100.00;100475.19;5008204;28;20037;-69
2023/06/29 06:40:51;;;;;;;5.65;3.28;;;;;;;21.41;100.00;100439.38;5009088;28;20084;-70
2023/06/29 06:43:17;;;;;;;6.97;3.95;;;;;;;21.42;100.00;100453.59;5008527;28;20355;-69
2023/06/29 06:45:43;;;;;;;7.82;4.43;;;;;;;21.60;100.00;100483.94;5006003;28;20046;-69
2023/06/29 06:48:08;;;;;;;9.85;4.70;;;;;;;21.77;100.00;100492.06;5008106;28;20054;-70
2023/06/29 06:50:34;;;;;;;7.07;5.85;;;;;;;21.75;100.00;100491.28;5001756;28;20572;-70
2023/06/29 06:52:59;;;;;;;8.23;4.20;;;;;;;21.24;100.00;100412.53;5006309;28;20897;-70
2023/06/29 06:55:26;;;;;;;5.85;4.00;;;;;;;21.79;100.00;100492.88;5006652;28;20489;-70
2023/06/29 06:57:51;;;;;;;9.70;4.78;;;;;;;21.19;100.00;100499.91;5007946;28;20149;-69
2023/06/29 07:00:17;;;;;;;6.03;2.33;;;;;;;20.65;100.00;100360.84;5003357;28;20045;-69
2023/06/29 07:02:43;;;;;;;7.68;3.38;;;;;;;21.83;100.00;100489.13;5007896;28;20409;-70
2023/06/29 07:05:08;;;;;;;5.95;3.47;;;;;;;21.27;100.00;100482.66;5008144;28;20045;-70
2023/06/29 07:07:34;;;;;;;4.22;2.55;;;;;;;21.91;100.00;100478.06;5008012;28;20659;-70
2023/06/29 07:10:00;;;;;;;23.55;4.00;;;;;;;21.66;100.00;100497.03;4993195;28;20041;-70
2023/06/29 07:12:25;;;;;;;6.72;4.00;;;;;;;21.40;100.00;100475.03;5005810;28;20048;-70
2023/06/29 07:14:51;;;;;;;9.90;4.68;;;;;;;21.45;100.00;100440.13;5003238;28;20050;-70
2023/06/29 07:17:17;;;;;;;6.20;4.32;;;;;;;20.85;100.00;100504.88;5005143;28;20093;-70
2023/06/29 07:19:43;;;;;;;6.45;3.78;;;;;;;21.40;100.00;100480.38;5004528;28;20052;-70
2023/06/29 07:22:08;;;;;;;6.40;4.20;;;;;;;21.67;100.00;100480.94;5005414;28;20744;-69
2023/06/29 07:24:34;;;;;;;4.60;2.67;;;;;;;21.95;100.00;100505.53;5005829;28;20103;-69
2023/06/29 07:26:59;;;;;;;6.35;4.07;;;;;;;21.28;100.00;100428.34;5006748;28;20052;-70
2023/06/29 07:29:26;;;;;;;7.13;3.58;;;;;;;21.42;100.00;100481.19;5006913;28;20481;-69
2023/06/29 07:31:52;;;;;;;5.22;3.22;;;;;;;22.06;100.00;100516.59;5012381;28;20470;-69
2023/06/29 07:34:22;;;;;;;9.10;4.13;;;;;;;21.53;100.00;100423.75;5007445;28;20053;-69
2023/06/29 07:36:48;;;;;;;5.90;3.70;;;;;;;21.83;100.00;100478.44;5006357;28;20038;-69
2023/06/29 07:39:13;;;;;;;13.00;3.83;;;;;;;21.83;100.00;100456.22;5006790;28;20571;-69
2023/06/29 07:41:39;;;;;;;6.00;3.05;;;;;;;21.92;100.00;100456.66;5007180;28;20468;-69
2023/06/29 07:44:04;;;;;;;5.03;3.05;;;;;;;22.34;100.00;100510.88;5007417;28;20029;-68
2023/06/29 07:46:31;;;;;;;8.15;4.00;;;;;;;22.29;100.00;100433.56;5006068;28;20397;-70
2023/06/29 07:48:58;;;;;;;4.38;3.13;;;;;;;22.10;100.00;100408.59;5007394;28;20050;-70
2023/06/29 07:51:24;;;;;;;6.88;4.40;;;;;;;22.83;100.00;100510.28;5006075;28;20520;-70
2023/06/29 07:53:52;;;;;;;11.23;3.75;;;;;;;22.74;100.00;100503.59;5008519;28;20049;-70
2023/06/29 07:56:18;;;;;;;6.03;3.55;;;;;;;22.81;100.00;100506.84;5005988;28;20700;-70
2023/06/29 07:58:43;;;;;;;10.98;3.42;;;;;;;22.62;100.00;100448.91;5007177;28;20045;-70
2023/06/29 08:01:09;;;;;;;5.45;3.08;;;;;;;23.19;100.00;100512.97;5003946;28;20405;-70
2023/06/29 08:03:34;;;;;;;7.70;4.32;;;;;;;22.67;100.00;100452.19;5007012;28;20045;-70
2023/06/29 08:06:00;;;;;;;12.60;5.30;;;;;;;22.13;100.00;100392.44;5006595;28;20125;-70
2023/06/29 08:08:29;;;;;;;7.32;5.22;;;;;;;23.26;100.00;100495.66;5006873;28;20450;-70
2023/06/29 08:10:55;;;;;;;4.65;3.08;;;;;;;23.29;100.00;100497.28;5007016;28;20034;-71
2023/06/29 08:13:21;;;;;;;5.13;3.55;;;;;;;23.23;100.00;100522.59;5001181;28;20659;-72
2023/06/29 08:15:46;;;;;;;7.18;4.00;;;;;;;23.65;100.00;100502.56;5002239;28;20046;-70
2023/06/29 08:18:12;;;;;;;4.32;2.78;;;;;;;23.17;100.00;100501.47;5000959;28;20819;-71
2023/06/29 08:20:38;;;;;;;12.68;3.28;;;;;;;23.70;100.00;100521.06;5003598;28;20038;-71
2023/06/29 08:23:03;;;;;;;3.67;2.28;;;;;;;23.38;100.00;100409.31;5007626;28;20034;-70
2023/06/29 08:25:29;;;;;;;5.93;2.58;;;;;;;24.22;100.00;100523.66;5006643;28;20049;-70
2023/06/29 08:27:54;;;;;;;5.15;2.70;;;;;;;23.83;100.00;100494.50;5006631;28;20041;-70
2023/06/29 08:30:21;;;;;;;4.97;2.83;;;;;;;23.17;100.00;100458.63;5006346;28;20042;-70
2023/06/29 08:32:48;;;;;;;7.22;2.42;;;;;;;24.14;100.00;100512.47;5006379;28;20133;-70
2023/06/29 08:35:14;;;;;;;4.10;2.58;;;;;;;24.19;100.00;100503.22;5007056;28;20346;-70
2023/06/29 08:37:40;;;;;;;3.78;2.25;;;;;;;24.66;100.00;100501.53;5006461;28;20037;-70
2023/06/29 08:40:06;;;;;;;7.57;2.53;;;;;;;24.22;99.36;100462.81;5006694;28;20378;-70
2023/06/29 08:42:32;;;;;;;4.10;2.30;;;;;;;24.88;100.00;100494.94;5005390;28;20248;-70
2023/06/29 08:44:57;;;;;;;3.03;1.70;;;;;;;24.98;97.06;100497.00;5005666;28;20124;-70
2023/06/29 08:47:26;;;;;;;5.07;2.55;;;;;;;24.62;86.01;100503.53;5004603;28;20030;-71
2023/06/29 08:49:57;;;;;;;7.35;2.22;;;;;;;24.58;95.39;100437.59;5002662;28;20472;-70
2023/06/29 08:52:25;;;;;;;6.68;2.65;;;;;;;24.68;92.38;100421.81;5006214;28;20054;-69
2023/06/29 08:54:52;;;;;;;1.88;1.35;;;;;;;24.92;73.97;100475.88;5006409;28;20065;-70
2023/06/29 08:57:18;;;;;;;2.30;1.63;;;;;;;24.70;92.98;100402.91;4998983;28;20057;-70
2023/06/29 08:59:47;;;;;;;2.63;1.98;;;;;;;25.20;77.09;100463.53;5004856;28;20037;-69
2023/06/29 09:02:14;;;;;;;3.33;1.80;;;;;;;25.18;87.97;100400.97;5004585;28;20042;-70
2023/06/29 09:04:40;;;;;;;4.00;1.75;;;;;;;25.76;77.78;100494.13;5001044;28;20084;-70
2023/06/29 09:07:06;;;;;;;4.05;2.30;;;;;;;25.30;81.14;100443.19;5006444;28;20041;-70
2023/06/29 09:09:32;;;;;;;2.80;1.40;;;;;;;26.09;80.39;100490.31;5005929;28;20486;-70
2023/06/29 09:12:00;;;;;;;2.47;1.02;;;;;;;26.19;72.35;100448.38;5006145;28;20054;-70
2023/06/29 09:14:28;;;;;;;4.25;1.73;;;;;;;26.36;67.57;100466.13;5006114;28;20498;-71
2023/06/29 09:16:58;;;;;;;4.93;1.50;;;;;;;26.95;66.26;100471.25;5006336;28;20087;-70
2023/06/29 09:19:25;;;;;;;4.65;1.80;;;;;;;26.65;69.57;100421.19;5004523;28;20042;-69
2023/06/29 09:21:51;;;;;;;3.22;1.42;;;;;;;26.33;71.46;100413.38;5006112;28;20073;-70
2023/06/29 09:24:18;;;;;;;2.25;1.13;;;;;;;25.85;58.20;100391.38;5003000;28;20064;-70
2023/06/29 09:26:48;;;;;;;2.50;1.02;;;;;;;26.38;69.15;100474.09;5002527;28;20061;-70
2023/06/29 09:29:13;;;;;;;1.88;1.27;;;;;;;26.33;66.44;100389.16;5002999;28;20478;-71
2023/06/29 09:31:39;;;;;;;3.40;2.13;;;;;;;26.65;63.62;100458.00;5005771;28;20057;-70
2023/06/29 09:34:21;;;;;;;1.27;0.88;;;;;;;26.84;60.43;100471.97;5003399;28;20050;-71
2023/06/29 09:36:48;;;;;;;3.25;1.23;;;;;;;26.71;65.83;100385.78;4999811;28;20038;-70
2023/06/29 09:39:15;;;;;;;1.92;1.23;;;;;;;26.99;63.34;100388.41;5002942;28;20104;-69
2023/06/29 09:41:56;;;;;;;3.25;1.95;;;;;;;27.62;58.41;100384.00;5005377;28;20044;-70
2023/06/29 09:44:25;;;;;;;1.95;0.90;;;;;;;26.94;56.12;100396.78;5005881;28;20030;-70
2023/06/29 09:46:53;;;;;;;2.00;1.45;;;;;;;26.57;59.61;100368.81;5006589;28;20037;-70
2023/06/29 09:49:19;;;;;;;6.80;1.52;;;;;;;27.46;54.27;100443.53;5005993;28;20120;-70
2023/06/29 09:51:48;;;;;;;3.05;1.65;;;;;;;27.24;50.74;100360.66;5005681;28;20054;-72
2023/06/29 09:54:14;;;;;;;1.48;0.90;;;;;;;27.65;50.13;100364.91;5005024;28;20073;-71
2023/06/29 09:56:41;;;;;;;1.85;0.95;;;;;;;28.15;50.89;100434.09;5005994;28;20073;-71
2023/06/29 09:59:11;;;;;;;1.38;0.88;;;;;;;26.57;54.42;100369.69;5005590;28;20136;-71
2023/06/29 10:01:43;;;;;;;1.75;0.77;;;;;;;27.53;50.80;100426.84;5005931;28;20076;-71
2023/06/29 10:04:09;;;;;;;1.60;0.60;;;;;;;27.90;50.94;100431.44;5008877;28;20046;-72
2023/06/29 10:06:46;;;;;;;1.63;0.88;;;;;;;27.92;51.90;100371.03;5008665;28;20038;-71
2023/06/29 10:09:16;;;;;;;2.33;1.70;;;;;;;28.18;49.46;100338.56;5007670;28;20124;-72
2023/06/29 10:11:44;;;;;;;6.50;0.73;;;;;;;28.51;47.10;100408.06;5008541;28;20042;-72
2023/06/29 10:14:13;;;;;;;2.17;1.35;;;;;;;28.55;48.70;100412.25;5009639;28;20038;-71
2023/06/29 10:16:45;;;;;;;2.17;1.00;;;;;;;28.73;46.92;100420.81;5009140;28;20131;-72
2023/06/29 10:19:16;;;;;;;1.35;0.70;;;;;;;28.81;43.89;100429.19;5006672;28;20072;-71
2023/06/29 10:21:43;;;;;;;2.22;1.00;;;;;;;27.94;47.90;100397.91;5008492;28;20050;-72
2023/06/29 10:24:12;;;;;;;2.53;1.13;;;;;;;27.45;46.82;100396.00;5008848;28;20076;-72
2023/06/29 10:26:39;;;;;;;1.52;1.00;;;;;;;27.30;46.30;100323.34;5008243;28;20521;-72
2023/06/29 10:29:07;;;;;;;1.40;0.90;;;;;;;28.46;49.35;100412.94;5008018;28;20033;-72
2023/06/29 10:31:33;;;;;;;2.33;0.93;;;;;;;27.51;45.15;100365.88;5008114;28;20046;-72
2023/06/29 10:33:58;;;;;;;1.42;0.95;;;;;;;28.98;43.91;100394.59;5010092;28;20354;-72
2023/06/29 10:36:24;;;;;;;0.98;0.73;;;;;;;28.87;42.34;100329.72;4986864;28;20070;-71
2023/06/29 10:38:50;;;;;;;2.05;0.85;;;;;;;29.40;45.86;100398.50;5003433;28;20505;-71
2023/06/29 10:41:26;;;;;;;1.02;0.60;;;;;;;29.42;41.69;100404.66;5008601;28;20048;-71
2023/06/29 10:44:05;;;;;;;0.73;0.60;;;;;;;29.51;42.93;100405.78;5008700;28;20489;-72
2023/06/29 10:46:40;;;;;;;1.42;0.63;;;;;;;27.58;49.02;100330.31;5005857;28;20068;-70
2023/06/29 10:49:08;;;;;;;1.73;0.90;;;;;;;26.54;49.58;100345.66;5007769;28;20044;-71
2023/06/29 10:51:48;;;;;;;1.02;0.40;;;;;;;28.42;46.38;100397.91;5004840;28;20038;-72
2023/06/29 10:54:15;;;;;;;2.42;1.08;;;;;;;28.73;46.82;100401.03;5008165;28;20095;-71
2023/06/29 10:57:05;;;;;;;0.93;0.70;;;;;;;28.61;45.51;100316.41;5004855;28;20060;-72
2023/06/29 10:59:33;;;;;;;1.73;1.13;;;;;;;29.60;47.48;100391.53;5005637;28;20042;-72
2023/06/29 11:01:59;;;;;;;1.50;0.80;;;;;;;29.52;45.63;100385.00;5008131;28;20058;-71
2023/06/29 11:04:25;;;;;;;1.58;0.82;;;;;;;27.80;46.19;100377.28;5006660;28;20521;-71
2023/06/29 11:06:50;;;;;;;2.10;0.88;;;;;;;27.60;48.49;100323.94;5005550;28;20394;-71
2023/06/29 11:09:16;;;;;;;2.63;1.00;;;;;;;28.24;46.90;100383.09;5007094;28;20056;-72
2023/06/29 11:11:45;;;;;;;1.80;1.17;;;;;;;28.06;48.15;100334.94;5007271;28;20046;-72